Time;durP1;ratioP1;P1;durP2;ratioP2;P2;SDS_P1;SDS_P2;PMS_P1;PMS_P2;Temp;Humidity;BMP_temperature;BMP_pressure;BME280_temperature;BME280_humidity;BME280_pressure;Samples;Min_cycle;Max_cycle;Signal;HPM_P1;HPM_P2
2021/06/26 00:00:11;;;;;;;;;;;16.30;99.90;;;;;;5090531;28;19969;-82
2021/06/26 00:02:37;;;;;;;;;;;16.30;99.90;;;;;;5108404;28;20434;-82
2021/06/26 00:05:03;;;;;;;;;;;16.40;99.90;;;;;;5108022;28;20018;-81
2021/06/26 00:07:29;;;;;;;;;;;16.40;99.90;;;;;;5089536;28;20271;-82
2021/06/26 00:09:55;;;;;;;;;;;16.40;99.90;;;;;;5106827;28;19988;-82
2021/06/26 00:12:21;;;;;;;;;;;16.40;99.90;;;;;;5107940;28;19922;-82
2021/06/26 00:14:46;;;;;;;;;;;16.50;99.90;;;;;;5107668;28;19923;-82
2021/06/26 00:17:12;;;;;;;;;;;16.50;99.90;;;;;;5090186;28;20893;-81
2021/06/26 00:19:38;;;;;;;;;;;16.50;99.90;;;;;;5106001;28;19930;-82
2021/06/26 00:22:04;;;;;;;;;;;16.50;99.90;;;;;;5108435;28;20291;-82
2021/06/26 00:24:30;;;;;;;;;;;16.50;99.90;;;;;;5107989;28;19978;-82
2021/06/26 00:26:55;;;;;;;;;;;16.50;99.90;;;;;;5111658;28;20394;-82
2021/06/26 00:29:21;;;;;;;;;;;16.50;99.90;;;;;;5126000;27;20415;-82
2021/06/26 00:31:47;;;;;;;;;;;16.50;99.90;;;;;;5092158;28;20416;-82
2021/06/26 00:34:13;;;;;;;;;;;16.50;99.90;;;;;;5109171;28;19974;-82
2021/06/26 00:36:39;;;;;;;;;;;16.50;99.90;;;;;;5091842;28;20335;-82
2021/06/26 00:39:04;;;;;;;;;;;16.50;99.90;;;;;;5088079;28;19919;-81
2021/06/26 00:41:30;;;;;;;;;;;16.50;99.90;;;;;;5110620;28;19959;-82
2021/06/26 00:43:56;;;;;;;;;;;16.60;99.90;;;;;;5110168;27;19915;-82
2021/06/26 00:46:21;;;;;;;;;;;16.60;99.90;;;;;;5108210;28;19916;-82
2021/06/26 00:48:48;;;;;;;;;;;16.60;99.90;;;;;;5109860;28;20004;-82
2021/06/26 00:51:13;;;;;;;;;;;16.50;99.90;;;;;;5104677;28;20721;-81
2021/06/26 00:53:39;;;;;;;;;;;16.50;99.90;;;;;;5109159;28;20325;-82
2021/06/26 00:56:05;;;;;;;;;;;16.50;99.90;;;;;;5110996;28;20436;-82
2021/06/26 00:58:31;;;;;;;;;;;16.60;99.90;;;;;;5108813;28;20912;-82
2021/06/26 01:00:57;;;;;;;;;;;16.50;99.90;;;;;;5107257;28;20027;-81
2021/06/26 01:03:23;;;;;;;;;;;16.50;99.90;;;;;;5109735;28;19919;-82
2021/06/26 01:05:49;;;;;;;;;;;16.50;99.90;;;;;;5110156;28;19943;-81
2021/06/26 01:08:14;;;;;;;;;;;16.50;99.90;;;;;;5110058;28;19929;-82
2021/06/26 01:10:42;;;;;;;;;;;16.50;99.90;;;;;;5109730;28;19915;-82
2021/06/26 01:13:08;;;;;;;;;;;16.50;99.90;;;;;;5092569;28;19915;-82
2021/06/26 01:15:34;;;;;;;;;;;16.50;99.90;;;;;;5091642;28;20328;-82
2021/06/26 01:18:00;;;;;;;;;;;16.50;99.90;;;;;;5102751;28;19923;-82
2021/06/26 01:20:26;;;;;;;;;;;16.50;99.90;;;;;;5108459;27;19920;-82
2021/06/26 01:22:57;;;;;;;;;;;16.60;99.90;;;;;;5107700;28;20755;-82
2021/06/26 01:25:24;;;;;;;;;;;16.50;99.90;;;;;;5109000;28;19952;-82
2021/06/26 01:27:50;;;;;;;;;;;16.50;99.90;;;;;;5108064;28;20024;-82
2021/06/26 01:30:17;;;;;;;;;;;16.50;99.90;;;;;;5091245;28;19923;-81
2021/06/26 01:32:43;;;;;;;;;;;16.50;99.90;;;;;;5105755;28;19930;-82
2021/06/26 01:35:09;;;;;;;;;;;16.50;99.90;;;;;;5102146;28;19919;-81
2021/06/26 01:37:39;;;;;;;;;;;16.50;99.90;;;;;;5109449;28;19966;-81
2021/06/26 01:40:05;;;;;;;;;;;16.50;99.90;;;;;;5109459;28;19916;-82
2021/06/26 01:42:31;;;;;;;;;;;16.50;99.90;;;;;;5108913;28;20379;-82
2021/06/26 01:44:57;;;;;;;;;;;16.50;99.90;;;;;;5084467;28;19927;-82
2021/06/26 01:47:22;;;;;;;;;;;16.50;99.90;;;;;;5109654;28;20621;-82
2021/06/26 01:49:49;;;;;;;;;;;16.50;99.90;;;;;;5109828;28;19924;-82
2021/06/26 01:52:14;;;;;;;;;;;16.50;99.90;;;;;;5109734;28;19923;-82
2021/06/26 01:54:40;;;;;;;;;;;16.50;99.90;;;;;;5085788;28;19993;-81
2021/06/26 01:57:09;;;;;;;;;;;16.50;99.90;;;;;;5109705;28;19959;-81
2021/06/26 01:59:35;;;;;;;;;;;16.50;99.90;;;;;;5092720;28;20019;-81
2021/06/26 02:02:01;;;;;;;;;;;16.50;99.90;;;;;;5109727;28;19926;-81
2021/06/26 02:04:27;;;;;;;;;;;16.50;99.90;;;;;;5107694;28;19920;-82
2021/06/26 02:06:52;;;;;;;;;;;16.50;99.90;;;;;;5109502;28;20374;-82
2021/06/26 02:09:18;;;;;;;;;;;16.50;99.90;;;;;;5110488;28;19923;-81
2021/06/26 02:11:44;;;;;;;;;;;16.50;99.90;;;;;;5092347;28;19962;-82
2021/06/26 02:14:11;;;;;;;;;;;16.50;99.90;;;;;;5109585;28;19927;-81
2021/06/26 02:16:37;;;;;;;;;;;16.40;99.90;;;;;;5092312;28;19926;-82
2021/06/26 02:19:03;;;;;;;;;;;16.50;99.90;;;;;;5109836;28;19919;-81
2021/06/26 02:21:29;;;;;;;;;;;16.50;99.90;;;;;;5108721;28;20370;-82
2021/06/26 02:23:58;;;;;;;;;;;16.50;99.90;;;;;;5110341;28;19920;-81
2021/06/26 02:26:25;;;;;;;;;;;16.50;99.90;;;;;;5085466;28;19916;-82
2021/06/26 02:28:50;;;;;;;;;;;16.50;99.90;;;;;;5108864;28;20787;-82
2021/06/26 02:31:16;;;;;;;;;;;16.50;99.90;;;;;;5108753;28;19924;-81
2021/06/26 02:33:42;;;;;;;;;;;16.50;99.90;;;;;;5087273;28;19981;-82
2021/06/26 02:36:10;;;;;;;;;;;16.50;99.90;;;;;;5108736;28;19920;-82
2021/06/26 02:38:36;;;;;;;;;;;16.50;99.90;;;;;;5108804;28;20740;-81
2021/06/26 02:41:02;;;;;;;;;;;16.50;99.90;;;;;;5108485;28;19939;-81
2021/06/26 02:43:27;;;;;;;;;;;16.50;99.90;;;;;;5084875;28;19919;-82
2021/06/26 02:45:53;;;;;;;;;;;16.50;99.90;;;;;;5087661;28;19966;-81
2021/06/26 02:48:19;;;;;;;;;;;16.50;99.90;;;;;;5108317;28;19919;-82
2021/06/26 02:50:45;;;;;;;;;;;16.50;99.90;;;;;;5109948;28;19923;-81
2021/06/26 02:53:11;;;;;;;;;;;16.50;99.90;;;;;;5068565;28;19931;-82
2021/06/26 02:55:37;;;;;;;;;;;16.50;99.90;;;;;;5109295;28;19934;-82
2021/06/26 02:58:03;;;;;;;;;;;16.50;99.90;;;;;;5083672;28;19959;-81
2021/06/26 03:00:28;;;;;;;;;;;16.50;99.90;;;;;;5107957;28;19916;-81
2021/06/26 03:02:54;;;;;;;;;;;16.50;99.90;;;;;;5085405;28;19916;-81
2021/06/26 03:05:20;;;;;;;;;;;16.50;99.90;;;;;;5085409;28;19916;-81
2021/06/26 03:07:53;;;;;;;;;;;16.50;99.90;;;;;;5083546;28;20379;-81
2021/06/26 03:10:19;;;;;;;;;;;16.40;99.90;;;;;;5124592;27;19923;-81
2021/06/26 03:12:45;;;;;;;;;;;16.40;99.90;;;;;;5106734;28;19919;-82
2021/06/26 03:15:12;;;;;;;;;;;16.40;99.90;;;;;;5109481;28;19957;-82
2021/06/26 03:17:38;;;;;;;;;;;16.40;99.90;;;;;;5108044;28;19915;-82
2021/06/26 03:20:05;;;;;;;;;;;16.40;99.90;;;;;;5109045;28;19912;-82
2021/06/26 03:22:31;;;;;;;;;;;16.40;99.90;;;;;;5090790;28;20339;-81
2021/06/26 03:25:01;;;;;;;;;;;16.40;99.90;;;;;;5109365;28;19915;-81
2021/06/26 03:27:27;;;;;;;;;;;16.40;99.90;;;;;;5109571;28;19926;-81
2021/06/26 03:29:52;;;;;;;;;;;16.40;99.90;;;;;;5107768;28;20007;-81
2021/06/26 03:32:18;;;;;;;;;;;16.30;99.90;;;;;;5107649;28;19921;-82
2021/06/26 03:34:46;;;;;;;;;;;16.40;99.90;;;;;;5082646;28;19923;-82
2021/06/26 03:37:12;;;;;;;;;;;16.30;99.90;;;;;;5081050;28;19920;-82
2021/06/26 03:39:40;;;;;;;;;;;16.30;99.90;;;;;;5108494;28;20014;-81
2021/06/26 03:42:06;;;;;;;;;;;16.30;99.90;;;;;;5085131;28;20372;-82
2021/06/26 03:44:32;;;;;;;;;;;16.30;99.90;;;;;;5091214;28;19923;-81
2021/06/26 03:46:59;;;;;;;;;;;16.30;99.90;;;;;;5085298;28;19945;-83
2021/06/26 03:49:25;;;;;;;;;;;16.30;99.90;;;;;;5107909;28;19919;-81
2021/06/26 03:51:51;;;;;;;;;;;16.30;99.90;;;;;;5109143;28;19958;-82
2021/06/26 03:54:17;;;;;;;;;;;16.30;99.90;;;;;;5107033;28;21186;-82
2021/06/26 03:56:42;;;;;;;;;;;16.30;99.90;;;;;;5084521;28;20639;-82
2021/06/26 03:59:08;;;;;;;;;;;16.30;99.90;;;;;;5110511;28;19992;-81
2021/06/26 04:01:34;;;;;;;;;;;16.30;99.90;;;;;;5112769;28;19920;-82
2021/06/26 04:04:00;;;;;;;;;;;16.30;99.90;;;;;;5095230;28;19916;-81
2021/06/26 04:06:26;;;;;;;;;;;16.30;99.90;;;;;;5069888;28;20684;-81
2021/06/26 04:08:52;;;;;;;;;;;16.30;99.90;;;;;;5113460;28;19963;-82
2021/06/26 04:11:37;;;;;;;;;;;16.30;99.90;;;;;;5109851;28;19934;-82
2021/06/26 04:14:03;;;;;;;;;;;16.30;99.90;;;;;;5111933;28;20025;-81
2021/06/26 04:16:29;;;;;;;;;;;16.30;99.90;;;;;;5087097;28;19926;-82
2021/06/26 04:18:55;;;;;;;;;;;16.30;99.90;;;;;;5094984;28;20389;-82
2021/06/26 04:21:21;;;;;;;;;;;16.40;99.90;;;;;;5111953;28;19927;-82
2021/06/26 04:23:46;;;;;;;;;;;16.40;99.90;;;;;;5112165;28;20385;-82
2021/06/26 04:26:12;;;;;;;;;;;16.40;99.90;;;;;;5087382;28;19916;-82
2021/06/26 04:28:38;;;;;;;;;;;16.40;99.90;;;;;;5085812;28;19935;-81
2021/06/26 04:31:03;;;;;;;;;;;16.50;99.90;;;;;;5112840;28;20260;-81
2021/06/26 04:33:29;;;;;;;;;;;16.40;99.90;;;;;;5111063;27;19931;-82
2021/06/26 04:35:55;;;;;;;;;;;16.50;99.90;;;;;;5111204;28;19915;-81
2021/06/26 04:38:24;;;;;;;;;;;16.50;99.90;;;;;;5073932;28;19919;-82
2021/06/26 04:40:51;;;;;;;;;;;16.50;99.90;;;;;;5111440;28;19934;-82
2021/06/26 04:43:17;;;;;;;;;;;16.50;99.90;;;;;;5087230;28;20052;-82
2021/06/26 04:45:46;;;;;;;;;;;16.50;99.90;;;;;;5111210;28;19916;-82
2021/06/26 04:48:12;;;;;;;;;;;16.50;99.90;;;;;;5111462;28;19946;-82
2021/06/26 04:50:38;;;;;;;;;;;16.50;99.90;;;;;;5111860;28;19920;-82
2021/06/26 04:53:04;;;;;;;;;;;16.50;99.90;;;;;;5110521;28;19924;-86
2021/06/26 04:55:30;;;;;;;;;;;16.50;99.90;;;;;;5094153;28;19916;-82
2021/06/26 04:57:55;;;;;;;;;;;16.50;99.90;;;;;;5076143;28;19915;-82
2021/06/26 05:00:21;;;;;;;;;;;16.60;99.90;;;;;;5085277;28;20007;-82
2021/06/26 05:02:47;;;;;;;;;;;16.60;99.90;;;;;;5086655;28;19969;-82
2021/06/26 05:05:13;;;;;;;;;;;16.60;99.90;;;;;;5107651;28;19927;-82
2021/06/26 05:07:39;;;;;;;;;;;16.60;99.90;;;;;;5085217;28;20303;-82
2021/06/26 05:10:04;;;;;;;;;;;16.70;99.90;;;;;;5086165;28;20283;-81
2021/06/26 05:12:30;;;;;;;;;;;16.70;99.90;;;;;;5111482;28;19919;-82
2021/06/26 05:14:56;;;;;;;;;;;16.70;99.90;;;;;;5093235;28;19916;-82
2021/06/26 05:17:22;;;;;;;;;;;16.70;99.90;;;;;;5082616;28;19916;-82
2021/06/26 05:19:47;;;;;;;;;;;16.70;99.90;;;;;;5110322;28;19926;-82
2021/06/26 05:22:13;;;;;;;;;;;16.70;99.90;;;;;;5111611;28;20375;-82
2021/06/26 05:24:39;;;;;;;;;;;16.70;99.90;;;;;;5110118;28;19919;-82
2021/06/26 05:27:06;;;;;;;;;;;16.80;99.90;;;;;;5093054;28;19928;-83
2021/06/26 05:29:32;;;;;;;;;;;16.80;99.90;;;;;;5092359;28;19935;-82
2021/06/26 05:31:57;;;;;;;;;;;16.80;99.90;;;;;;5111154;28;19986;-82
2021/06/26 05:34:23;;;;;;;;;;;16.80;99.90;;;;;;5110243;28;19970;-82
2021/06/26 05:36:49;;;;;;;;;;;16.90;99.90;;;;;;5068478;28;19927;-82
2021/06/26 05:39:15;;;;;;;;;;;16.90;99.90;;;;;;5110420;28;19961;-82
2021/06/26 05:41:41;;;;;;;;;;;16.90;99.90;;;;;;5111326;28;20014;-82
2021/06/26 05:44:06;;;;;;;;;;;16.90;99.90;;;;;;5109962;28;19916;-82
2021/06/26 05:46:32;;;;;;;;;;;16.90;99.90;;;;;;5110126;28;19919;-82
2021/06/26 05:48:58;;;;;;;;;;;17.00;99.90;;;;;;5109720;28;20305;-82
2021/06/26 05:51:24;;;;;;;;;;;17.00;99.90;;;;;;5110102;28;19967;-82
2021/06/26 05:53:50;;;;;;;;;;;17.00;99.90;;;;;;5109586;28;19926;-81
2021/06/26 05:56:16;;;;;;;;;;;17.00;99.90;;;;;;5111154;28;19920;-82
2021/06/26 05:58:42;;;;;;;;;;;17.00;99.90;;;;;;5111369;28;19927;-82
2021/06/26 06:01:11;;;;;;;;;;;17.10;99.90;;;;;;5092972;28;19922;-82
2021/06/26 06:03:38;;;;;;;;;;;17.10;99.90;;;;;;5127631;27;19967;-82
2021/06/26 06:06:04;;;;;;;;;;;17.10;99.90;;;;;;5110520;28;19920;-82
2021/06/26 06:08:30;;;;;;;;;;;17.10;99.90;;;;;;5109420;28;20010;-82
2021/06/26 06:10:56;;;;;;;;;;;17.10;99.90;;;;;;5109744;28;20382;-82
2021/06/26 06:13:22;;;;;;;;;;;17.10;99.90;;;;;;5083211;28;19922;-82
2021/06/26 06:15:48;;;;;;;;;;;17.10;99.90;;;;;;5079329;28;20423;-83
2021/06/26 06:18:15;;;;;;;;;;;17.20;99.90;;;;;;5109708;28;19920;-82
2021/06/26 06:20:41;;;;;;;;;;;17.20;99.90;;;;;;5108423;28;19915;-82
2021/06/26 06:23:07;;;;;;;;;;;17.20;99.90;;;;;;5109253;28;19981;-82
2021/06/26 06:25:33;;;;;;;;;;;17.20;99.90;;;;;;5110741;28;19920;-82
2021/06/26 06:28:01;;;;;;;;;;;17.20;99.90;;;;;;5110851;28;20443;-82
2021/06/26 06:30:27;;;;;;;;;;;17.20;99.90;;;;;;5110379;28;19923;-83
2021/06/26 06:32:52;;;;;;;;;;;17.30;99.90;;;;;;5109301;28;19977;-82
2021/06/26 06:35:18;;;;;;;;;;;17.30;99.90;;;;;;5126528;27;19994;-83
2021/06/26 06:37:44;;;;;;;;;;;17.30;99.90;;;;;;5091345;28;19942;-83
2021/06/26 06:40:13;;;;;;;;;;;17.30;99.90;;;;;;5111106;28;19954;-82
2021/06/26 06:42:39;;;;;;;;;;;17.30;99.90;;;;;;5109809;28;19926;-82
2021/06/26 06:45:06;;;;;;;;;;;17.40;99.90;;;;;;5108359;28;19933;-82
2021/06/26 06:47:31;;;;;;;;;;;17.40;99.90;;;;;;5109044;28;19931;-82
2021/06/26 06:49:57;;;;;;;;;;;17.40;99.90;;;;;;5109819;28;20438;-84
2021/06/26 06:52:23;;;;;;;;;;;17.50;99.90;;;;;;5108300;28;19955;-82
2021/06/26 06:54:49;;;;;;;;;;;17.60;99.90;;;;;;5090256;28;19923;-82
2021/06/26 06:57:18;;;;;;;;;;;17.60;99.90;;;;;;5090051;28;20744;-82
2021/06/26 06:59:43;;;;;;;;;;;17.60;99.90;;;;;;5108487;28;19951;-83
2021/06/26 07:02:09;;;;;;;;;;;17.60;99.90;;;;;;5107975;28;20359;-83
2021/06/26 07:04:35;;;;;;;;;;;17.70;99.90;;;;;;5109086;28;19915;-82
2021/06/26 07:07:01;;;;;;;;;;;17.70;99.90;;;;;;5090084;28;19920;-83
2021/06/26 07:09:26;;;;;;;;;;;17.70;99.90;;;;;;5107781;28;20375;-82
2021/06/26 07:11:52;;;;;;;;;;;17.70;99.90;;;;;;5106275;28;20382;-82
2021/06/26 07:14:18;;;;;;;;;;;17.70;99.90;;;;;;5106206;28;19926;-82
2021/06/26 07:16:43;;;;;;;;;;;17.70;99.90;;;;;;5106242;28;19923;-82
2021/06/26 07:19:09;;;;;;;;;;;17.70;99.90;;;;;;5089582;28;20332;-82
2021/06/26 07:21:35;;;;;;;;;;;17.70;99.90;;;;;;5106646;28;19927;-83
2021/06/26 07:24:00;;;;;;;;;;;17.70;99.90;;;;;;5108431;28;20298;-82
2021/06/26 07:26:26;;;;;;;;;;;17.70;99.90;;;;;;5109106;28;19938;-82
2021/06/26 07:28:52;;;;;;;;;;;17.70;99.90;;;;;;5074836;28;19920;-83
2021/06/26 07:31:17;;;;;;;;;;;17.70;99.90;;;;;;5091980;28;20357;-83
2021/06/26 07:33:43;;;;;;;;;;;17.80;99.90;;;;;;5109560;28;19980;-83
2021/06/26 07:36:09;;;;;;;;;;;17.80;99.90;;;;;;5110308;28;20018;-82
2021/06/26 07:38:35;;;;;;;;;;;17.90;99.90;;;;;;5125395;28;19922;-83
2021/06/26 07:41:00;;;;;;;;;;;17.90;99.90;;;;;;5108676;28;19998;-82
2021/06/26 07:43:26;;;;;;;;;;;17.90;99.90;;;;;;5101515;28;20806;-82
2021/06/26 07:45:52;;;;;;;;;;;18.00;99.90;;;;;;5071297;28;19969;-82
2021/06/26 07:48:18;;;;;;;;;;;18.00;99.90;;;;;;5106132;28;19915;-83
2021/06/26 07:50:49;;;;;;;;;;;18.10;99.90;;;;;;5090544;28;19954;-83
2021/06/26 07:53:15;;;;;;;;;;;18.10;99.90;;;;;;5090667;28;19919;-83
2021/06/26 07:55:41;;;;;;;;;;;18.10;99.90;;;;;;5107095;28;19920;-82
2021/06/26 07:58:07;;;;;;;;;;;18.10;99.90;;;;;;5108288;28;19915;-83
2021/06/26 08:00:33;;;;;;;;;;;18.10;99.90;;;;;;5090850;28;19953;-82
2021/06/26 08:02:59;;;;;;;;;;;18.20;99.90;;;;;;5125257;28;19916;-83
2021/06/26 08:05:24;;;;;;;;;;;18.20;99.90;;;;;;5086099;28;19919;-83
2021/06/26 08:07:50;;;;;;;;;;;18.20;99.90;;;;;;5107738;28;19969;-83
2021/06/26 08:10:16;;;;;;;;;;;18.30;99.90;;;;;;5091089;28;19998;-83
2021/06/26 08:12:41;;;;;;;;;;;18.30;99.90;;;;;;5108106;28;20271;-83
2021/06/26 08:15:07;;;;;;;;;;;18.30;99.90;;;;;;5123241;28;19916;-83
2021/06/26 08:17:33;;;;;;;;;;;18.30;99.90;;;;;;5108301;28;20374;-83
2021/06/26 08:19:59;;;;;;;;;;;18.30;99.90;;;;;;5107929;28;19919;-83
2021/06/26 08:22:24;;;;;;;;;;;18.30;99.90;;;;;;5107317;28;19919;-83
2021/06/26 08:24:50;;;;;;;;;;;18.40;99.90;;;;;;5108284;28;19919;-82
2021/06/26 08:27:16;;;;;;;;;;;18.40;99.90;;;;;;5099985;28;20460;-82
2021/06/26 08:29:41;;;;;;;;;;;18.40;99.90;;;;;;5107744;28;19965;-82
2021/06/26 08:32:07;;;;;;;;;;;18.40;99.90;;;;;;5107734;28;20402;-83
2021/06/26 08:34:33;;;;;;;;;;;18.40;99.90;;;;;;5107109;28;19924;-83
2021/06/26 08:36:58;;;;;;;;;;;18.40;99.90;;;;;;5087067;28;19920;-83
2021/06/26 08:39:24;;;;;;;;;;;18.40;99.90;;;;;;5096238;28;19923;-83
2021/06/26 08:41:50;;;;;;;;;;;18.40;99.90;;;;;;5109315;28;20310;-83
2021/06/26 08:44:19;;;;;;;;;;;18.40;99.90;;;;;;5107405;28;19911;-82
2021/06/26 08:46:46;;;;;;;;;;;18.40;99.90;;;;;;5111223;28;19919;-82
2021/06/26 08:49:12;;;;;;;;;;;18.40;99.90;;;;;;5128292;27;19930;-83
2021/06/26 08:51:38;;;;;;;;;;;18.50;99.90;;;;;;5111182;28;19916;-83
2021/06/26 08:54:09;;;;;;;;;;;18.50;99.90;;;;;;5111926;28;19942;-83
2021/06/26 08:56:35;;;;;;;;;;;18.50;99.90;;;;;;5111014;28;19931;-83
2021/06/26 08:59:01;;;;;;;;;;;18.50;99.90;;;;;;5112437;28;19915;-83
2021/06/26 09:01:27;;;;;;;;;;;18.60;99.90;;;;;;5111182;28;19958;-83
2021/06/26 09:04:06;;;;;;;;;;;18.60;99.90;;;;;;5093433;28;19969;-83
2021/06/26 09:06:34;;;;;;;;;;;18.60;99.90;;;;;;5112156;27;20409;-83
2021/06/26 09:09:00;;;;;;;;;;;18.60;99.90;;;;;;5111164;28;20040;-82
2021/06/26 09:11:26;;;;;;;;;;;18.60;99.90;;;;;;5119353;27;20018;-83
2021/06/26 09:13:52;;;;;;;;;;;18.70;99.90;;;;;;5109838;28;20363;-82
2021/06/26 09:16:20;;;;;;;;;;;18.70;99.90;;;;;;5112040;28;19919;-82
2021/06/26 09:18:45;;;;;;;;;;;18.70;99.90;;;;;;5109344;28;19930;-83
2021/06/26 09:24:01;;;;;;;;;;;18.70;99.90;;;;;;5103596;28;20047;-85
2021/06/26 09:26:27;;;;;;;;;;;18.70;99.90;;;;;;5118523;27;19923;-83
2021/06/26 09:28:53;;;;;;;;;;;18.70;99.90;;;;;;5106354;28;20439;-85
2021/06/26 09:31:21;;;;;;;;;;;18.70;99.90;;;;;;5088567;28;20087;-83
2021/06/26 09:33:57;;;;;;;;;;;18.80;99.90;;;;;;5089938;28;20041;-83
2021/06/26 09:36:29;;;;;;;;;;;18.80;99.90;;;;;;5102439;28;20382;-83
2021/06/26 09:38:59;;;;;;;;;;;18.90;99.90;;;;;;5106869;28;19931;-83
2021/06/26 09:41:25;;;;;;;;;;;19.00;99.90;;;;;;5107474;28;19942;-83
2021/06/26 09:43:51;;;;;;;;;;;19.10;99.90;;;;;;5102637;28;20378;-83
2021/06/26 09:46:17;;;;;;;;;;;19.10;99.90;;;;;;5110900;28;19919;-83
2021/06/26 09:48:54;;;;;;;;;;;19.10;99.90;;;;;;5092481;28;20529;-83
2021/06/26 09:51:24;;;;;;;;;;;19.30;99.90;;;;;;5115154;27;20006;-83
2021/06/26 09:53:56;;;;;;;;;;;19.40;99.90;;;;;;5104622;28;20418;-83
2021/06/26 09:56:22;;;;;;;;;;;19.40;99.90;;;;;;5100889;28;20052;-83
2021/06/26 09:58:49;;;;;;;;;;;19.40;99.90;;;;;;5107945;28;20313;-83
2021/06/26 10:01:15;;;;;;;;;;;19.40;99.90;;;;;;5098740;28;19916;-81
2021/06/26 10:03:41;;;;;;;;;;;19.40;99.90;;;;;;5099806;28;20337;-83
2021/06/26 10:06:06;;;;;;;;;;;19.30;99.90;;;;;;5116768;27;19916;-82
2021/06/26 10:08:32;;;;;;;;;;;19.30;99.90;;;;;;5106360;28;19970;-83
2021/06/26 10:10:59;;;;;;;;;;;19.30;99.90;;;;;;5092030;28;19965;-83
2021/06/26 10:13:25;;;;;;;;;;;19.30;99.90;;;;;;5091952;28;19923;-83
2021/06/26 10:15:50;;;;;;;;;;;19.30;99.90;;;;;;5108536;28;20279;-83
2021/06/26 10:18:16;;;;;;;;;;;19.50;99.90;;;;;;5109248;28;19954;-83
2021/06/26 10:20:43;;;;;;;;;;;19.50;99.90;;;;;;5107295;28;19923;-83
2021/06/26 10:23:08;;;;;;;;;;;19.60;99.90;;;;;;5109330;28;19919;-83
2021/06/26 10:25:35;;;;;;;;;;;19.60;99.90;;;;;;5090962;28;19926;-83
2021/06/26 10:28:06;;;;;;;;;;;19.50;99.90;;;;;;5109508;28;19923;-83
2021/06/26 10:30:31;;;;;;;;;;;19.60;99.90;;;;;;5108817;28;19916;-83
2021/06/26 10:33:02;;;;;;;;;;;19.70;99.90;;;;;;5093050;28;20444;-83
2021/06/26 10:35:28;;;;;;;;;;;19.70;99.90;;;;;;5125410;27;19920;-83
2021/06/26 10:38:03;;;;;;;;;;;19.80;99.90;;;;;;5109272;28;20389;-83
2021/06/26 10:40:35;;;;;;;;;;;19.80;99.90;;;;;;5099089;28;19920;-83
2021/06/26 10:43:11;;;;;;;;;;;19.80;99.90;;;;;;5108898;28;19972;-83
2021/06/26 10:45:37;;;;;;;;;;;19.90;99.90;;;;;;5109607;28;19920;-83
2021/06/26 10:48:13;;;;;;;;;;;19.90;99.90;;;;;;5088803;28;19928;-83
2021/06/26 10:50:43;;;;;;;;;;;19.90;99.90;;;;;;5108378;28;19919;-83
2021/06/26 10:53:09;;;;;;;;;;;19.80;99.90;;;;;;5092369;28;20362;-83
2021/06/26 10:55:36;;;;;;;;;;;19.80;99.90;;;;;;5094797;28;19919;-83
2021/06/26 10:58:03;;;;;;;;;;;19.80;99.90;;;;;;5089737;28;19998;-83
2021/06/26 11:00:37;;;;;;;;;;;19.80;99.90;;;;;;5108371;28;20030;-83
2021/06/26 11:03:04;;;;;;;;;;;19.80;99.90;;;;;;5125986;27;19959;-83
2021/06/26 11:05:31;;;;;;;;;;;19.80;99.90;;;;;;5099579;28;19919;-83
2021/06/26 11:07:57;;;;;;;;;;;19.80;99.90;;;;;;5104537;28;19919;-83
2021/06/26 11:10:23;;;;;;;;;;;19.90;99.90;;;;;;5109377;28;20375;-83
2021/06/26 11:12:49;;;;;;;;;;;19.90;99.90;;;;;;5092208;28;19973;-82
2021/06/26 11:15:16;;;;;;;;;;;20.00;99.90;;;;;;5114771;27;19951;-83
2021/06/26 11:17:43;;;;;;;;;;;20.00;99.90;;;;;;5125770;27;19916;-83
2021/06/26 11:20:13;;;;;;;;;;;20.00;99.90;;;;;;5109618;28;19912;-83
2021/06/26 11:22:42;;;;;;;;;;;19.90;99.90;;;;;;5107426;28;19915;-83
2021/06/26 11:25:11;;;;;;;;;;;19.90;99.90;;;;;;5124716;27;19915;-83
2021/06/26 11:27:37;;;;;;;;;;;20.00;99.90;;;;;;5108447;28;19923;-83
2021/06/26 11:30:04;;;;;;;;;;;20.00;99.90;;;;;;5109586;28;20751;-83
2021/06/26 11:32:30;;;;;;;;;;;20.00;99.90;;;;;;5124441;27;20287;-83
2021/06/26 11:35:09;;;;;;;;;;;20.00;99.90;;;;;;5107318;28;19942;-83
2021/06/26 11:37:36;;;;;;;;;;;20.10;99.90;;;;;;5125853;27;19928;-82
2021/06/26 11:40:03;;;;;;;;;;;20.20;99.90;;;;;;5109717;28;19922;-83
2021/06/26 11:42:29;;;;;;;;;;;20.30;99.90;;;;;;5107838;28;19937;-83
2021/06/26 11:44:54;;;;;;;;;;;20.40;99.90;;;;;;5107610;28;19920;-83
2021/06/26 11:47:23;;;;;;;;;;;20.50;99.90;;;;;;5096525;28;20010;-83
2021/06/26 11:49:49;;;;;;;;;;;20.70;99.90;;;;;;5108459;28;19972;-83
2021/06/26 11:52:15;;;;;;;;;;;20.80;99.90;;;;;;5099317;28;19916;-82
2021/06/26 11:54:42;;;;;;;;;;;20.70;99.90;;;;;;5106926;28;20108;-83
2021/06/26 11:57:11;;;;;;;;;;;20.80;99.90;;;;;;5107927;28;20013;-83
2021/06/26 11:59:38;;;;;;;;;;;20.90;99.90;;;;;;5108452;28;19923;-83
2021/06/26 12:02:04;;;;;;;;;;;21.10;99.90;;;;;;5124855;28;19919;-82
2021/06/26 12:04:31;;;;;;;;;;;21.10;99.90;;;;;;5087185;28;19942;-83
2021/06/26 12:06:57;;;;;;;;;;;21.00;99.90;;;;;;5108341;28;20298;-82
2021/06/26 12:09:24;;;;;;;;;;;20.90;99.90;;;;;;5107700;28;19930;-83
2021/06/26 12:11:50;;;;;;;;;;;20.90;99.90;;;;;;5107986;28;19955;-82
2021/06/26 12:14:16;;;;;;;;;;;20.80;99.90;;;;;;5088877;28;20439;-83
2021/06/26 12:16:42;;;;;;;;;;;20.70;99.90;;;;;;5107720;28;20014;-82
2021/06/26 12:19:09;;;;;;;;;;;20.70;99.90;;;;;;5108842;28;19919;-83
2021/06/26 12:21:51;;;;;;;;;;;20.60;99.90;;;;;;5111241;28;19985;-83
2021/06/26 12:24:46;;;;;;;;;;;20.60;99.90;;;;;;5110611;28;19919;-83
2021/06/26 12:27:14;;;;;;;;;;;20.60;99.90;;;;;;5102384;28;20032;-83
2021/06/26 12:29:44;;;;;;;;;;;20.60;99.90;;;;;;5110334;28;20005;-82
2021/06/26 12:32:21;;;;;;;;;;;20.60;99.90;;;;;;5112701;28;19920;-83
2021/06/26 12:34:47;;;;;;;;;;;20.70;99.90;;;;;;5110420;28;19927;-83
2021/06/26 12:37:13;;;;;;;;;;;20.80;99.90;;;;;;5094863;28;19915;-83
2021/06/26 12:39:38;;;;;;;;;;;20.90;99.90;;;;;;5128431;27;19919;-83
2021/06/26 12:42:07;;;;;;;;;;;20.90;99.90;;;;;;5111484;28;19926;-83
2021/06/26 12:44:33;;;;;;;;;;;21.00;99.90;;;;;;5127569;27;19912;-83
2021/06/26 12:46:59;;;;;;;;;;;21.00;99.90;;;;;;5111585;28;20256;-83
2021/06/26 12:49:34;;;;;;;;;;;21.10;99.90;;;;;;5111423;28;19934;-83
2021/06/26 12:52:11;;;;;;;;;;;21.10;99.90;;;;;;5112105;28;19992;-83
2021/06/26 12:54:46;;;;;;;;;;;21.00;99.90;;;;;;5111417;28;20010;-83
2021/06/26 12:57:12;;;;;;;;;;;21.00;99.90;;;;;;5112231;28;19915;-83
2021/06/26 12:59:37;;;;;;;;;;;20.90;99.90;;;;;;5094318;28;19915;-82
2021/06/26 13:02:03;;;;;;;;;;;20.90;99.90;;;;;;5111022;28;19919;-83
2021/06/26 13:04:39;;;;;;;;;;;20.90;99.90;;;;;;5109993;28;20306;-83
2021/06/26 13:07:05;;;;;;;;;;;20.90;99.90;;;;;;5111347;28;19927;-82
2021/06/26 13:09:38;;;;;;;;;;;20.80;99.90;;;;;;5110759;28;19923;-83
2021/06/26 13:12:16;;;;;;;;;;;20.80;99.90;;;;;;5110530;28;19974;-83
2021/06/26 13:14:43;;;;;;;;;;;20.80;99.90;;;;;;5111126;27;19920;-83
2021/06/26 13:17:09;;;;;;;;;;;20.70;99.90;;;;;;5110347;28;20006;-83
2021/06/26 13:19:35;;;;;;;;;;;20.60;99.90;;;;;;5112353;28;19920;-82
2021/06/26 13:22:01;;;;;;;;;;;20.60;99.90;;;;;;5093247;28;20464;-83
2021/06/26 13:24:27;;;;;;;;;;;20.60;99.90;;;;;;5110002;28;19920;-82
2021/06/26 13:26:52;;;;;;;;;;;20.70;99.90;;;;;;5093414;28;20381;-83
2021/06/26 13:29:18;;;;;;;;;;;20.80;99.90;;;;;;5099187;28;19916;-82
2021/06/26 13:31:44;;;;;;;;;;;21.00;99.90;;;;;;5104341;28;19923;-82
2021/06/26 13:34:10;;;;;;;;;;;21.10;99.90;;;;;;5094591;28;19999;-83
2021/06/26 13:36:36;;;;;;;;;;;21.10;99.90;;;;;;5103083;28;19959;-84
2021/06/26 13:39:02;;;;;;;;;;;21.20;99.90;;;;;;5098503;28;19920;-82
2021/06/26 13:41:28;;;;;;;;;;;21.30;99.90;;;;;;5090983;28;20461;-82
2021/06/26 13:43:54;;;;;;;;;;;21.30;99.90;;;;;;5103522;28;19959;-83
2021/06/26 13:46:20;;;;;;;;;;;21.40;99.90;;;;;;5069457;28;19920;-83
2021/06/26 13:48:45;;;;;;;;;;;21.40;99.90;;;;;;5081991;28;19920;-82
2021/06/26 13:51:11;;;;;;;;;;;21.30;99.90;;;;;;5090009;28;19919;-81
2021/06/26 13:53:37;;;;;;;;;;;21.40;99.90;;;;;;5102594;28;20298;-82
2021/06/26 13:56:03;;;;;;;;;;;21.40;99.90;;;;;;5102571;28;19963;-81
2021/06/26 13:58:28;;;;;;;;;;;21.30;99.90;;;;;;5090862;28;20280;-82
2021/06/26 14:00:54;;;;;;;;;;;21.30;99.90;;;;;;5095231;28;19999;-83
2021/06/26 14:03:20;;;;;;;;;;;21.30;99.90;;;;;;5082599;28;19924;-82
2021/06/26 14:05:47;;;;;;;;;;;21.40;99.90;;;;;;5102574;28;19928;-83
2021/06/26 14:08:13;;;;;;;;;;;21.40;99.90;;;;;;5102352;28;19923;-83
2021/06/26 14:10:39;;;;;;;;;;;21.40;99.90;;;;;;5093742;28;20679;-81
2021/06/26 14:13:06;;;;;;;;;;;21.40;99.90;;;;;;5086441;28;19920;-81
2021/06/26 14:15:31;;;;;;;;;;;21.40;99.90;;;;;;5099905;28;20641;-81